Time;durP1;ratioP1;P1;durP2;ratioP2;P2;SDS_P1;SDS_P2;PMS_P1;PMS_P2;Temp;Humidity;BMP_temperature;BMP_pressure;BME280_temperature;BME280_humidity;BME280_pressure;Samples;Min_cycle;Max_cycle;Signal;HPM_P1;HPM_P2
2021/05/03 00:02:19;;;;;;;14.60;12.23;;;6.90;79.50;;;5.15;78.46;96383.59;5042197;28;20032;-68
2021/05/03 00:04:44;;;;;;;13.15;11.85;;;6.90;80.00;;;5.17;78.86;96389.47;4996702;28;20053;-67
2021/05/03 00:07:10;;;;;;;12.90;11.00;;;6.90;79.60;;;5.19;78.44;96395.34;5028687;28;20113;-67
2021/05/03 00:09:36;;;;;;;12.90;11.45;;;6.90;79.20;;;5.17;78.03;96387.69;4995285;28;20036;-68
2021/05/03 00:12:02;;;;;;;13.02;11.73;;;6.90;79.70;;;5.14;78.26;96389.78;5053635;28;20041;-68
2021/05/03 00:14:27;;;;;;;13.50;12.10;;;6.80;79.80;;;5.12;78.70;96391.72;5029015;28;20044;-67
2021/05/03 00:16:53;;;;;;;12.38;11.07;;;6.80;79.90;;;5.11;78.30;96397.91;4995889;28;20033;-67
2021/05/03 00:19:19;;;;;;;13.10;11.82;;;6.80;79.90;;;5.12;78.38;96394.31;4995709;28;20040;-68
2021/05/03 00:21:45;;;;;;;12.48;11.15;;;6.90;79.80;;;5.13;79.05;96398.56;4994655;28;20067;-67
2021/05/03 00:24:10;;;;;;;12.45;11.15;;;6.80;79.80;;;5.13;78.36;96396.78;5046853;28;20037;-68
2021/05/03 00:26:36;;;;;;;12.45;11.13;;;6.90;79.60;;;5.14;78.29;96403.63;4993410;28;20518;-68
2021/05/03 00:29:02;;;;;;;12.30;11.00;;;6.90;79.20;;;5.15;78.37;96401.84;5011153;28;20098;-67
2021/05/03 00:31:28;;;;;;;11.80;10.60;;;6.90;79.40;;;5.16;78.06;96404.28;5057497;28;20469;-66
2021/05/03 00:33:54;;;;;;;12.18;11.02;;;6.90;79.30;;;5.15;78.58;96401.84;5028066;28;20048;-67
2021/05/03 00:36:20;;;;;;;12.23;10.73;;;6.90;79.40;;;5.13;78.25;96396.78;5011577;28;20041;-67
2021/05/03 00:38:45;;;;;;;11.40;10.27;;;6.80;79.80;;;5.13;78.72;96401.16;5028375;28;20819;-66
2021/05/03 00:41:11;;;;;;;11.93;10.63;;;6.80;79.70;;;5.12;78.41;96394.31;5026714;28;20040;-66
2021/05/03 00:43:37;;;;;;;12.13;10.82;;;6.90;79.50;;;5.13;78.87;96390.75;4995282;28;20059;-66
2021/05/03 00:46:03;;;;;;;14.63;10.80;;;6.90;79.70;;;5.14;77.94;96392.38;5028601;28;20037;-67
2021/05/03 00:48:29;;;;;;;11.52;10.43;;;6.90;79.40;;;5.15;78.09;96394.00;5036145;28;20060;-67
2021/05/03 00:50:54;;;;;;;11.30;10.20;;;6.90;79.60;;;5.15;78.17;96394.00;4984076;28;20037;-67
2021/05/03 00:53:20;;;;;;;10.82;9.68;;;7.00;79.40;;;5.15;78.04;96394.00;4999835;28;20078;-66
2021/05/03 00:55:46;;;;;;;11.68;10.27;;;7.00;79.10;;;5.17;78.79;96394.69;5011431;28;20076;-68
2021/05/03 00:58:12;;;;;;;11.93;10.63;;;6.90;79.10;;;5.15;78.54;96394.84;5007932;28;20124;-67
2021/05/03 01:00:38;;;;;;;11.30;10.10;;;7.00;79.40;;;5.15;78.58;96394.00;4959990;28;20037;-67
2021/05/03 01:03:05;;;;;;;11.70;10.50;;;6.80;79.60;;;5.14;78.67;96397.59;4972740;28;20148;-67
2021/05/03 01:05:31;;;;;;;11.63;10.27;;;6.80;79.60;;;5.13;78.49;96395.97;5027529;28;20060;-66
2021/05/03 01:07:57;;;;;;;12.23;10.98;;;6.80;79.80;;;5.13;78.45;96402.00;5011522;28;20053;-67
2021/05/03 01:10:24;;;;;;;12.52;10.63;;;6.90;79.70;;;5.13;78.20;96402.00;5006950;28;20037;-67
2021/05/03 01:12:52;;;;;;;12.50;10.63;;;6.80;79.60;;;5.13;78.85;96395.97;5009430;28;20101;-67
2021/05/03 01:15:23;;;;;;;13.32;10.43;;;6.80;79.50;;;5.10;78.60;96402.28;5011740;28;20108;-67
2021/05/03 01:17:59;;;;;;;12.95;11.45;;;6.70;79.90;;;5.10;78.92;96398.88;4996488;28;20032;-67
2021/05/03 01:20:33;;;;;;;13.23;11.82;;;6.80;80.00;;;5.09;79.65;96413.69;5010885;28;20103;-67
2021/05/03 01:22:59;;;;;;;12.65;11.35;;;6.90;80.50;;;5.08;78.71;96404.22;4993296;28;20032;-67
2021/05/03 01:25:31;;;;;;;12.65;11.25;;;6.80;80.20;;;5.06;78.58;96395.72;5027889;28;20029;-67
2021/05/03 01:28:02;;;;;;;12.85;11.50;;;6.80;80.40;;;5.08;79.11;96392.97;4996742;28;20121;-66
2021/05/03 01:30:37;;;;;;;15.93;12.38;;;6.80;80.30;;;5.10;79.39;96407.50;5011300;28;20146;-66
2021/05/03 01:33:04;;;;;;;12.82;11.52;;;6.80;80.50;;;5.11;78.66;96406.53;4990973;28;20128;-66
2021/05/03 01:35:30;;;;;;;13.02;11.68;;;6.90;80.40;;;5.13;79.28;96409.00;5008535;28;20135;-66
2021/05/03 01:37:57;;;;;;;13.23;11.82;;;6.90;80.50;;;5.12;79.38;96410.78;5027973;28;20563;-67
2021/05/03 01:40:27;;;;;;;13.93;12.50;;;6.90;80.50;;;5.14;78.96;96414.06;5011831;28;20500;-67
2021/05/03 01:42:53;;;;;;;13.55;12.15;;;6.90;80.30;;;5.15;78.85;96410.47;4990123;28;20048;-67
2021/05/03 01:45:26;;;;;;;13.73;12.35;;;6.90;80.50;;;5.16;79.61;96409.50;5026857;28;20033;-67
2021/05/03 01:47:53;;;;;;;13.52;12.23;;;7.00;80.60;;;5.16;79.49;96419.13;5013254;28;20522;-68
2021/05/03 01:50:22;;;;;;;13.23;11.88;;;7.00;80.40;;;5.18;79.88;96419.78;4982921;28;20048;-67
2021/05/03 01:52:49;;;;;;;13.52;12.15;;;7.10;80.50;;;5.21;79.30;96424.75;5032116;28;20029;-68
2021/05/03 01:55:15;;;;;;;13.70;12.25;;;7.10;80.30;;;5.23;79.37;96428.03;5014548;28;20425;-68
2021/05/03 01:57:41;;;;;;;13.45;11.85;;;7.10;80.30;;;5.27;79.41;96424.16;5013247;28;20116;-67
2021/05/03 02:00:07;;;;;;;12.90;11.60;;;7.20;80.20;;;5.29;79.25;96432.63;5019840;28;20056;-68
2021/05/03 02:02:33;;;;;;;15.55;12.52;;;7.20;80.10;;;5.27;79.57;96418.94;4997921;28;20033;-67
2021/05/03 02:04:59;;;;;;;14.75;13.25;;;7.20;80.10;;;5.31;80.06;96428.09;5016084;28;20037;-68
2021/05/03 02:07:25;;;;;;;14.13;12.63;;;7.20;80.10;;;5.29;79.37;96427.41;5008717;28;20346;-67
2021/05/03 02:09:50;;;;;;;14.07;12.68;;;7.10;80.30;;;5.28;79.23;96420.56;5014854;28;20108;-67
2021/05/03 02:12:16;;;;;;;15.32;13.10;;;7.10;80.40;;;5.28;78.96;96425.78;5019724;28;20041;-68
2021/05/03 02:14:42;;;;;;;14.60;13.10;;;7.10;80.40;;;5.27;79.69;96418.94;5031175;28;20056;-67
2021/05/03 02:17:09;;;;;;;14.85;13.32;;;7.10;80.30;;;5.23;79.72;96425.41;5030280;23;20523;-79
2021/05/03 02:19:35;;;;;;;15.18;13.57;;;7.10;80.50;;;5.21;78.86;96422.13;5021411;28;20033;-78
2021/05/03 02:22:01;;;;;;;14.95;13.43;;;7.10;80.40;;;5.18;79.06;96425.00;4992254;28;20071;-77
2021/05/03 02:24:27;;;;;;;16.15;14.45;;;7.00;80.40;;;5.15;79.61;96427.91;4995966;28;20492;-78
2021/05/03 02:26:53;;;;;;;17.65;14.18;;;7.00;80.70;;;5.10;79.32;96412.72;4992497;28;20026;-80
2021/05/03 02:29:18;;;;;;;16.33;14.57;;;6.90;81.00;;;5.06;79.69;96421.00;4976372;28;20142;-78
2021/05/03 02:31:44;;;;;;;16.23;14.52;;;6.70;81.30;;;5.02;79.78;96419.66;4992726;28;20030;-77
2021/05/03 02:34:10;;;;;;;18.58;15.82;;;6.70;81.30;;;4.98;79.65;96413.06;4976817;28;20125;-78
2021/05/03 02:36:36;;;;;;;16.83;15.10;;;6.60;81.50;;;4.92;79.82;96409.25;4976483;28;20038;-77
2021/05/03 02:39:02;;;;;;;17.25;15.45;;;6.60;81.80;;;4.90;79.55;96408.59;4976511;28;20076;-77
2021/05/03 02:41:27;;;;;;;18.73;16.73;;;6.60;81.90;;;4.86;79.72;96413.28;4986392;28;20037;-77
2021/05/03 02:43:53;;;;;;;18.73;16.50;;;6.60;81.90;;;4.83;80.27;96410.16;4988738;28;20057;-79
2021/05/03 02:46:19;;;;;;;17.52;15.73;;;6.50;82.10;;;4.80;80.44;96413.88;5008780;28;20461;-77
2021/05/03 02:48:45;;;;;;;18.23;16.33;;;6.50;82.30;;;4.80;80.49;96413.88;5007909;28;20069;-78
2021/05/03 02:51:10;;;;;;;18.70;16.00;;;6.60;82.30;;;4.82;80.64;96413.72;4986415;28;20570;-78
2021/05/03 02:53:36;;;;;;;17.95;16.13;;;6.60;82.00;;;4.82;80.17;96411.94;5009383;28;20517;-78
2021/05/03 02:56:02;;;;;;;17.17;15.32;;;6.60;82.10;;;4.83;80.24;96410.16;5009863;28;20030;-77
2021/05/03 02:58:27;;;;;;;18.95;16.98;;;6.60;82.20;;;4.81;80.28;96412.06;4975080;28;20409;-76
2021/05/03 03:00:53;;;;;;;18.48;16.58;;;6.50;82.10;;;4.80;80.66;96410.44;4992467;28;20513;-78
2021/05/03 03:03:19;;;;;;;18.40;16.27;;;6.50;82.20;;;4.81;80.71;96415.50;4988184;28;20109;-77
2021/05/03 03:05:45;;;;;;;18.90;16.50;;;6.60;82.10;;;4.83;80.75;96410.16;4986865;28;20152;-78
2021/05/03 03:08:10;;;;;;;18.13;16.23;;;6.70;81.80;;;4.83;80.67;96415.34;4959435;28;20055;-77
2021/05/03 03:10:36;;;;;;;19.42;17.33;;;6.60;82.00;;;4.82;80.19;96421.53;4975596;28;20038;-77
2021/05/03 03:13:04;;;;;;;18.48;16.25;;;6.50;82.10;;;4.83;80.53;96421.38;4991440;28;20038;-76
2021/05/03 03:15:32;;;;;;;21.02;16.63;;;6.60;81.80;;;4.83;80.06;96429.22;5016700;28;20030;-77
2021/05/03 03:17:58;;;;;;;19.20;16.63;;;6.50;81.90;;;4.84;80.70;96432.63;4981129;28;20070;-77
2021/05/03 03:20:23;;;;;;;17.85;15.95;;;6.60;81.70;;;4.84;80.74;96441.28;4976061;28;20561;-77
2021/05/03 03:22:49;;;;;;;19.35;16.00;;;6.60;81.80;;;4.86;80.93;96443.72;4976056;28;20711;-77
2021/05/03 03:25:18;;;;;;;18.77;16.52;;;6.60;81.70;;;4.85;80.60;96437.69;4975560;28;20453;-76
2021/05/03 03:27:44;;;;;;;18.75;16.00;;;6.60;82.00;;;4.86;80.45;96435.91;4977922;28;20054;-77
2021/05/03 03:30:11;;;;;;;20.00;16.58;;;6.60;81.70;;;4.85;80.24;96436.88;4975857;28;20421;-77
2021/05/03 03:32:44;;;;;;;19.33;17.23;;;6.70;81.50;;;4.85;80.84;96435.09;4975204;28;20064;-78
2021/05/03 03:35:14;;;;;;;19.10;17.10;;;6.70;81.30;;;4.85;80.80;96445.53;4973684;28;20050;-78
2021/05/03 03:37:40;;;;;;;19.55;17.50;;;6.60;81.30;;;4.81;80.28;96444.19;5006265;28;20034;-78
2021/05/03 03:40:06;;;;;;;19.10;17.10;;;6.70;81.30;;;4.79;80.38;96442.69;4975497;28;20117;-77
2021/05/03 03:42:32;;;;;;;19.50;17.33;;;6.70;81.10;;;4.78;80.42;96448.84;4958864;28;20413;-78
2021/05/03 03:44:58;;;;;;;18.60;16.70;;;6.70;81.00;;;4.76;80.07;96446.41;4975064;28;20044;-70
2021/05/03 03:47:25;;;;;;;20.30;17.73;;;6.60;80.90;;;4.72;80.47;96452.03;4992082;28;20089;-71
2021/05/03 03:49:51;;;;;;;19.73;17.58;;;6.60;81.20;;;4.67;80.13;96452.47;4969242;28;20469;-70
2021/05/03 03:52:17;;;;;;;19.25;17.23;;;6.50;81.40;;;4.62;80.62;96457.28;4989175;28;20038;-69
2021/05/03 03:54:43;;;;;;;20.58;18.08;;;6.40;81.30;;;4.56;80.54;96455.25;4974988;28;20078;-68
2021/05/03 03:57:08;;;;;;;21.95;18.45;;;6.40;81.40;;;4.50;80.48;96450.59;5000931;28;20042;-72
2021/05/03 03:59:39;;;;;;;20.75;18.55;;;6.30;81.40;;;4.47;80.73;96456.91;4988432;28;20148;-76
2021/05/03 04:02:06;;;;;;;19.63;16.77;;;6.20;81.70;;;4.46;80.59;96463.09;4999998;28;20030;-75
2021/05/03 04:04:32;;;;;;;19.25;17.13;;;6.30;81.50;;;4.42;80.93;96463.53;4974888;28;20045;-76
2021/05/03 04:07:25;;;;;;;21.58;18.45;;;6.40;81.30;;;4.40;80.73;96460.25;4989971;28;20041;-75
2021/05/03 04:10:06;;;;;;;20.40;17.17;;;6.30;81.50;;;4.37;80.42;96463.13;4980606;28;20101;-76
2021/05/03 04:12:45;;;;;;;19.70;17.60;;;6.10;81.60;;;4.33;80.62;96464.38;5007759;28;20189;-76
2021/05/03 04:26:09;;;;;;;19.33;17.27;;;6.10;81.60;;;4.17;80.91;96470.16;4992650;28;20101;-77
2021/05/03 04:28:34;;;;;;;19.70;17.38;;;6.00;81.80;;;4.16;80.64;96479.75;4970536;28;20034;-76
2021/05/03 04:31:00;;;;;;;17.98;15.73;;;6.00;81.80;;;4.18;80.59;96482.22;5006498;28;20057;-76
2021/05/03 04:33:26;;;;;;;18.17;16.38;;;6.00;81.40;;;4.17;80.71;96484.00;4973251;28;20034;-76
2021/05/03 04:35:52;;;;;;;17.95;16.10;;;6.10;81.40;;;4.16;80.80;96484.97;4993666;28;20033;-76
2021/05/03 04:38:17;;;;;;;18.48;16.67;;;6.00;81.50;;;4.17;80.46;96489.22;4989883;28;20466;-77
2021/05/03 04:40:44;;;;;;;17.35;15.60;;;6.00;81.60;;;4.16;80.49;96489.34;5007276;28;20130;-75
2021/05/03 04:43:10;;;;;;;18.80;16.38;;;6.00;81.60;;;4.15;80.70;96493.72;4974292;28;20057;-76
2021/05/03 04:45:35;;;;;;;17.95;16.13;;;6.00;81.80;;;4.15;80.89;96488.53;4989142;28;20042;-76
2021/05/03 04:48:01;;;;;;;17.80;16.00;;;6.00;81.70;;;4.14;80.68;96499.91;4989704;28;20042;-75
2021/05/03 04:50:27;;;;;;;17.63;15.82;;;5.90;81.80;;;4.14;80.97;96491.28;4989714;28;20030;-76
2021/05/03 04:52:53;;;;;;;17.35;15.55;;;6.00;81.70;;;4.18;80.88;96498.66;4972323;28;20068;-76
2021/05/03 04:55:18;;;;;;;16.73;15.02;;;6.10;81.50;;;4.22;81.07;96500.00;5005733;28;20060;-75
2021/05/03 04:57:44;;;;;;;17.23;15.35;;;6.20;81.20;;;4.25;80.79;96504.13;5007208;28;20036;-77
2021/05/03 05:00:10;;;;;;;17.52;15.73;;;6.20;81.20;;;4.29;80.90;96506.31;4989677;28;20120;-71
2021/05/03 05:02:36;;;;;;;16.90;15.20;;;6.20;81.00;;;4.32;80.65;96514.81;4973512;28;20507;-72
2021/05/03 05:05:02;;;;;;;16.42;14.73;;;6.20;81.00;;;4.36;81.17;96505.75;4973202;28;20038;-70
2021/05/03 05:07:28;;;;;;;16.58;14.88;;;6.20;80.90;;;4.42;80.54;96510.41;4988466;28;20042;-71
2021/05/03 05:09:56;;;;;;;16.23;14.63;;;6.40;80.50;;;4.46;80.73;96509.16;4989913;28;20044;-72
2021/05/03 05:12:21;;;;;;;16.23;14.52;;;6.40;80.50;;;4.49;80.36;96512.28;4991303;28;20052;-73
2021/05/03 05:14:47;;;;;;;15.52;13.93;;;6.50;80.40;;;4.55;80.42;96516.13;5005594;28;20049;-70
2021/05/03 05:17:13;;;;;;;15.85;14.25;;;6.50;80.20;;;4.59;80.73;96512.28;4988555;28;20065;-70
2021/05/03 05:19:39;;;;;;;15.10;13.52;;;6.60;80.00;;;4.65;80.61;96511.72;4989370;28;20038;-77
2021/05/03 05:22:05;;;;;;;20.45;18.42;;;6.60;79.90;;;4.71;79.96;96515.53;4973591;28;20480;-67
2021/05/03 05:24:31;;;;;;;15.48;13.95;;;6.70;79.50;;;4.77;79.85;96521.00;4997457;28;20042;-69
2021/05/03 05:26:57;;;;;;;15.32;13.73;;;6.70;79.40;;;4.85;79.90;96517.69;5004571;28;20049;-69
2021/05/03 05:29:25;;;;;;;14.82;13.25;;;6.90;79.20;;;4.91;79.66;96523.13;4988489;28;20038;-69
2021/05/03 05:31:52;;;;;;;15.88;13.68;;;6.90;78.60;;;5.00;79.65;96521.47;5000582;28;20033;-68
2021/05/03 05:34:18;;;;;;;14.43;12.95;;;7.10;78.60;;;5.10;79.80;96524.00;5005215;28;20108;-67
2021/05/03 05:36:44;;;;;;;14.60;13.07;;;7.30;78.10;;;5.21;80.09;96518.63;4997963;28;20403;-68
2021/05/03 05:39:10;;;;;;;13.95;12.32;;;7.40;77.40;;;5.32;79.21;96526.25;5003845;28;20041;-69
2021/05/03 05:41:35;;;;;;;13.35;11.95;;;7.60;76.40;;;5.45;79.48;96531.94;4996445;28;20038;-70
2021/05/03 05:44:01;;;;;;;14.43;12.07;;;7.70;76.20;;;5.55;78.61;96531.88;4997206;28;20041;-70
2021/05/03 05:46:27;;;;;;;13.95;12.40;;;7.90;75.20;;;5.69;78.85;96538.38;4988527;28;20096;-69
2021/05/03 05:48:53;;;;;;;12.85;11.55;;;8.00;74.80;;;5.81;78.78;96537.19;4992484;28;20414;-69
2021/05/03 05:51:21;;;;;;;17.10;14.40;;;8.20;74.10;;;5.95;77.82;96543.72;4998244;28;20561;-68
2021/05/03 05:53:46;;;;;;;12.98;11.60;;;8.50;73.50;;;6.11;78.27;96543.84;5006910;28;20042;-69
2021/05/03 05:56:15;;;;;;;13.27;11.25;;;8.60;73.10;;;6.27;78.34;96543.16;4997215;28;20528;-72
2021/05/03 05:58:40;;;;;;;13.70;11.20;;;8.80;71.40;;;6.40;77.05;96538.38;4989641;28;20042;-69
2021/05/03 06:01:06;;;;;;;12.13;10.75;;;9.00;71.50;;;6.57;77.62;96550.59;5005599;28;20502;-70
2021/05/03 06:03:32;;;;;;;12.77;11.23;;;9.40;70.20;;;6.75;76.82;96543.50;4972575;28;20629;-69
2021/05/03 06:05:58;;;;;;;13.75;10.73;;;9.70;69.40;;;6.95;77.04;96538.06;5005735;28;20505;-68
2021/05/03 06:08:24;;;;;;;11.88;10.60;;;9.90;68.90;;;7.13;77.81;96538.81;4972556;28;20068;-71
2021/05/03 06:10:50;;;;;;;12.43;10.57;;;10.10;67.20;;;7.30;76.87;96540.53;5005021;28;20117;-66
2021/05/03 06:13:16;;;;;;;14.50;10.32;;;10.10;67.00;;;7.49;76.76;96554.34;5004084;28;20145;-67
2021/05/03 06:15:42;;;;;;;13.35;9.80;;;10.10;66.20;;;7.65;75.56;96546.53;4986198;28;20042;-65
2021/05/03 06:18:08;;;;;;;12.15;9.82;;;10.40;65.90;;;7.84;74.96;96546.25;5005984;28;20057;-66
2021/05/03 06:20:34;;;;;;;13.23;10.90;;;10.70;64.80;;;8.06;75.23;96554.47;4988254;28;20121;-68
2021/05/03 06:23:02;;;;;;;13.25;10.85;;;11.10;64.70;;;8.30;74.35;96551.88;4973229;28;20528;-66
2021/05/03 06:25:28;;;;;;;13.13;10.48;;;11.40;63.70;;;8.54;74.33;96543.22;4978477;28;20049;-64
2021/05/03 06:27:54;;;;;;;12.05;9.60;;;11.70;62.10;;;8.78;74.12;96550.22;5006096;28;20073;-68
2021/05/03 06:30:22;;;;;;;14.30;9.65;;;11.80;61.00;;;9.04;73.15;96547.38;4988337;28;20038;-67
2021/05/03 06:32:48;;;;;;;11.80;9.68;;;12.30;60.00;;;9.24;72.15;96550.44;5005776;28;20038;-67
2021/05/03 06:35:13;;;;;;;11.00;9.40;;;12.40;59.20;;;9.40;72.14;96545.13;5003356;28;20591;-69
2021/05/03 06:37:39;;;;;;;12.35;9.35;;;12.60;58.40;;;9.53;71.29;96550.66;5007406;28;20033;-69
2021/05/03 06:40:06;;;;;;;12.68;10.68;;;12.70;58.50;;;9.67;71.50;96546.47;4984133;28;20030;-68
2021/05/03 06:42:32;;;;;;;12.48;10.30;;;13.00;57.30;;;9.86;70.17;96550.50;5003576;28;20532;-70
2021/05/03 06:44:57;;;;;;;11.73;9.82;;;13.10;56.00;;;10.01;69.43;96552.22;5009764;28;20073;-68
2021/05/03 06:47:25;;;;;;;10.07;8.82;;;13.10;54.20;;;10.10;69.75;96555.59;5020796;28;20034;-66
2021/05/03 06:49:51;;;;;;;12.68;9.38;;;13.60;55.30;;;10.20;68.73;96548.31;5007239;28;20115;-69
2021/05/03 06:52:16;;;;;;;10.98;9.55;;;13.50;53.40;;;10.26;68.04;96558.16;4977183;28;20089;-70
2021/05/03 06:54:42;;;;;;;11.55;9.10;;;13.40;54.50;;;10.32;68.51;96559.25;5005131;28;20034;-68
2021/05/03 06:57:08;;;;;;;9.50;8.20;;;13.60;54.00;;;10.41;67.51;96559.03;5005443;28;20042;-68
2021/05/03 06:59:34;;;;;;;10.10;8.18;;;14.00;53.40;;;10.51;66.57;96555.31;5004353;28;20064;-69
2021/05/03 07:01:59;;;;;;;11.63;9.82;;;14.10;52.10;;;10.62;66.42;96552.25;4993127;28;20129;-69
2021/05/03 07:04:25;;;;;;;10.27;8.02;;;14.40;50.80;;;10.73;66.70;96559.75;5001198;28;20120;-62
2021/05/03 07:06:51;;;;;;;9.55;8.50;;;14.70;50.80;;;10.85;65.92;96557.47;5002640;28;20034;-63
2021/05/03 07:09:16;;;;;;;9.63;7.78;;;14.70;50.40;;;11.03;66.35;96555.31;4998778;28;20085;-70
2021/05/03 07:11:44;;;;;;;12.27;8.43;;;15.20;49.40;;;11.23;66.06;96551.16;4985164;28;20038;-69
2021/05/03 07:14:10;;;;;;;12.10;9.20;;;15.50;46.90;;;11.42;64.73;96559.53;5005151;28;20073;-68
2021/05/03 07:16:36;;;;;;;9.25;8.07;;;15.50;46.80;;;11.60;64.96;96560.78;4989517;28;20037;-70
2021/05/03 07:19:02;;;;;;;9.25;7.80;;;15.80;46.90;;;11.79;63.61;96566.50;4973203;28;20081;-66
2021/05/03 07:21:29;;;;;;;9.90;8.57;;;15.70;46.40;;;11.94;63.10;96562.00;5007936;28;20033;-67
2021/05/03 07:23:54;;;;;;;18.52;12.45;;;15.90;44.80;;;12.03;63.01;96563.53;4990590;28;20651;-66
2021/05/03 07:26:20;;;;;;;10.75;8.32;;;16.00;45.80;;;12.14;62.19;96564.84;4958155;28;20030;-67
2021/05/03 07:28:46;;;;;;;10.07;7.32;;;15.70;46.00;;;12.18;62.15;96561.66;4991721;28;20048;-67
2021/05/03 07:31:12;;;;;;;8.65;7.75;;;16.10;46.00;;;12.32;61.86;96564.44;5006814;28;20546;-67
2021/05/03 07:33:37;;;;;;;8.38;7.47;;;16.40;45.70;;;12.35;61.02;96559.59;4971979;28;20762;-66
2021/05/03 07:36:04;;;;;;;8.77;7.40;;;16.40;44.00;;;12.51;60.53;96556.72;5004561;28;20042;-66
2021/05/03 07:38:31;;;;;;;8.90;7.63;;;16.80;43.70;;;12.70;60.07;96560.53;5005562;28;20034;-70
2021/05/03 07:40:56;;;;;;;10.00;7.68;;;17.00;43.50;;;12.70;59.80;96560.53;4972237;28;20391;-69
2021/05/03 07:43:22;;;;;;;9.07;7.70;;;16.60;43.20;;;12.78;59.92;96549.81;4994375;28;20041;-65
2021/05/03 07:45:48;;;;;;;9.77;7.32;;;16.80;42.80;;;12.89;58.88;96554.56;4974597;28;20030;-66
2021/05/03 07:48:14;;;;;;;9.80;7.65;;;17.10;42.10;;;13.12;58.40;96549.03;5020641;28;20033;-69
2021/05/03 07:50:41;;;;;;;10.57;8.05;;;17.80;42.70;;;13.32;58.70;96551.00;4990647;28;20053;-65
2021/05/03 07:53:07;;;;;;;8.45;6.53;;;17.70;40.90;;;13.38;57.71;96553.72;5005745;28;20066;-66
2021/05/03 07:55:33;;;;;;;7.47;6.63;;;17.50;40.00;;;13.47;57.41;96549.88;4986445;28;20050;-68
2021/05/03 07:58:01;;;;;;;9.32;7.35;;;17.10;41.00;;;13.51;56.50;96554.78;5002183;28;20042;-65
2021/05/03 08:00:28;;;;;;;8.93;7.15;;;17.00;41.60;;;13.57;56.22;96557.44;5006246;28;20140;-71
2021/05/03 08:02:54;;;;;;;9.15;7.45;;;17.40;41.30;;;13.75;56.01;96552.44;5001204;28;20506;-70
2021/05/03 08:05:21;;;;;;;9.57;7.60;;;17.70;41.10;;;13.96;55.07;96563.91;4988540;28;20517;-70
2021/05/03 08:07:47;;;;;;;8.93;7.25;;;17.60;39.50;;;13.95;55.49;96562.28;4998015;28;20034;-67
2021/05/03 08:10:12;;;;;;;9.85;7.55;;;17.00;40.60;;;13.89;54.41;96561.25;4985678;28;20038;-68
2021/05/03 08:12:38;;;;;;;8.95;7.45;;;16.80;41.70;;;13.87;55.46;96563.28;4999860;28;20057;-67
2021/05/03 08:15:13;;;;;;;9.38;7.65;;;16.70;42.50;;;13.79;53.52;96566.88;5005619;28;20140;-67
2021/05/03 08:17:40;;;;;;;8.25;7.38;;;16.60;41.50;;;13.68;53.67;96566.66;4975184;28;20041;-72
2021/05/03 08:20:06;;;;;;;8.82;7.10;;;16.30;42.60;;;13.57;53.83;96572.47;4953686;28;20409;-70
2021/05/03 08:22:33;;;;;;;7.65;6.43;;;15.90;42.90;;;13.42;53.57;96567.34;4991038;28;20038;-70
2021/05/03 08:24:58;;;;;;;8.52;6.40;;;15.60;42.70;;;13.32;53.72;96561.56;4972616;28;20107;-69
2021/05/03 08:27:24;;;;;;;9.20;6.65;;;15.70;42.50;;;13.18;53.40;96568.63;4983520;28;20204;-65
2021/05/03 08:29:50;;;;;;;10.75;7.35;;;15.40;42.90;;;13.01;53.26;96567.25;4998726;28;20457;-67
2021/05/03 08:32:16;;;;;;;13.27;9.45;;;15.10;44.10;;;12.72;53.21;96565.63;4999215;28;20068;-66
2021/05/03 08:34:41;;;;;;;9.05;7.20;;;14.60;44.90;;;12.49;52.72;96563.19;4972924;28;20038;-66
2021/05/03 08:37:07;;;;;;;8.65;7.15;;;14.10;45.30;;;12.24;53.31;96566.19;4974128;28;20069;-66
2021/05/03 08:39:33;;;;;;;9.63;7.10;;;13.90;45.80;;;12.09;53.19;96562.78;5000934;28;21630;-67
2021/05/03 08:42:00;;;;;;;7.32;6.07;;;13.90;45.80;;;11.95;52.88;96571.53;4990309;28;20088;-67
2021/05/03 08:44:27;;;;;;;8.43;7.20;;;14.20;45.90;;;12.12;53.48;96562.41;4988957;28;20041;-67
2021/05/03 08:46:56;;;;;;;8.68;6.63;;;15.40;42.90;;;12.43;51.91;96553.38;4997333;28;20117;-67
2021/05/03 08:49:32;;;;;;;8.00;6.25;;;16.40;41.70;;;12.78;52.48;96556.91;5004960;28;20121;-67
2021/05/03 08:52:11;;;;;;;6.97;5.45;;;16.80;38.80;;;13.20;52.50;96558.69;4977782;28;20165;-67
2021/05/03 08:54:40;;;;;;;7.32;5.55;;;17.80;36.10;;;13.70;51.19;96551.41;5003547;28;20038;-67
2021/05/03 08:57:10;;;;;;;7.60;6.25;;;18.60;35.20;;;14.15;47.48;96559.69;4972672;28;20112;-68
2021/05/03 08:59:36;;;;;;;7.28;5.53;;;18.20;34.00;;;14.30;50.80;96557.69;4996681;28;20116;-64
2021/05/03 09:02:04;;;;;;;10.15;6.57;;;17.70;35.20;;;14.28;48.28;96562.38;4973422;28;20045;-69
2021/05/03 09:04:29;;;;;;;8.57;6.35;;;17.10;36.20;;;14.17;49.26;96560.31;4999078;28;20030;-69
2021/05/03 09:07:04;;;;;;;9.02;6.63;;;16.60;37.70;;;13.97;46.23;96557.59;4973040;28;20126;-68
2021/05/03 09:09:43;;;;;;;7.60;6.38;;;16.20;39.60;;;13.70;49.53;96554.88;5006318;28;20040;-69
2021/05/03 09:12:17;;;;;;;7.35;6.13;;;15.60;42.30;;;13.37;48.06;96552.06;5007038;28;20052;-67
2021/05/03 09:14:50;;;;;;;7.88;5.88;;;15.30;42.80;;;13.12;48.62;96556.13;4973479;28;20046;-65
2021/05/03 09:17:29;;;;;;;7.82;6.65;;;14.90;44.30;;;12.82;50.00;96569.53;4987626;28;20038;-66
2021/05/03 09:20:10;;;;;;;6.53;5.32;;;14.50;46.10;;;12.36;50.54;96558.59;4972717;28;20038;-66
2021/05/03 09:23:20;;;;;;;6.90;4.50;;;13.70;45.70;;;12.08;50.48;96561.16;4989554;28;20030;-70
2021/05/03 09:25:52;;;;;;;4.60;3.90;;;13.70;47.10;;;11.82;51.53;96555.59;4987113;28;20501;-69
2021/05/03 09:28:27;;;;;;;5.68;4.30;;;13.40;45.80;;;11.60;49.96;96552.06;5003931;28;20544;-69
2021/05/03 09:30:55;;;;;;;8.50;5.25;;;13.30;46.80;;;11.40;50.72;96549.16;4995247;28;20528;-68
2021/05/03 09:33:28;;;;;;;7.45;5.15;;;13.10;46.40;;;11.21;51.69;96549.72;5003055;28;20096;-65
2021/05/03 09:35:58;;;;;;;6.72;4.75;;;13.00;46.30;;;11.00;52.24;96556.50;5007245;28;20044;-67
2021/05/03 09:38:33;;;;;;;8.68;6.55;;;12.80;47.30;;;10.92;51.25;96556.59;4985245;28;20038;-66
2021/05/03 09:41:27;;;;;;;7.30;5.78;;;12.70;48.50;;;10.88;52.18;96563.22;4989420;28;20084;-67
2021/05/03 09:44:02;;;;;;;9.65;6.30;;;12.70;48.40;;;10.81;53.20;96556.19;4991866;28;20049;-67
2021/05/03 09:46:35;;;;;;;7.53;6.28;;;12.70;49.50;;;10.85;52.60;96562.75;5006240;28;20132;-70
2021/05/03 09:49:16;;;;;;;8.10;6.13;;;12.90;48.40;;;10.71;53.53;96564.38;5006777;28;20089;-68
2021/05/03 09:51:52;;;;;;;4.75;3.40;;;12.40;51.10;;;10.55;51.13;96559.22;4987588;28;20065;-68
2021/05/03 09:54:29;;;;;;;6.93;3.50;;;12.00;48.40;;;10.34;52.40;96550.19;4981783;28;20034;-67
2021/05/03 09:57:10;;;;;;;7.22;3.17;;;11.70;48.70;;;10.20;51.27;96537.78;4986168;28;20469;-69
2021/05/03 09:59:45;;;;;;;4.18;3.45;;;11.60;48.20;;;10.21;52.01;96538.63;5007135;28;20048;-69
2021/05/03 10:02:26;;;;;;;3.40;2.60;;;12.10;48.70;;;10.30;49.35;96538.38;4987681;28;20386;-63
2021/05/03 10:05:09;;;;;;;4.00;2.95;;;12.60;43.40;;;10.74;50.96;96535.06;4986993;28;20209;-70
2021/05/03 10:07:37;;;;;;;4.85;2.72;;;14.00;42.00;;;11.54;51.25;96537.81;4974826;28;20046;-66
2021/05/03 10:10:08;;;;;;;10.32;6.72;;;16.10;38.70;;;12.44;50.31;96539.16;4975105;28;20521;-65
2021/05/03 10:12:34;;;;;;;5.22;3.35;;;17.60;35.60;;;13.18;51.36;96531.63;5009039;28;20431;-66
2021/05/03 10:15:02;;;;;;;7.00;4.60;;;17.70;34.70;;;13.33;50.09;96524.38;4992152;28;20038;-64
2021/05/03 10:17:29;;;;;;;6.38;3.78;;;16.50;37.50;;;13.32;48.40;96528.03;4976338;28;20060;-65
2021/05/03 10:20:00;;;;;;;3.78;3.13;;;15.60;36.50;;;13.11;43.73;96522.81;4992669;28;20484;-65
2021/05/03 10:22:26;;;;;;;;;;;14.70;36.40;;;12.88;44.67;96534.44;4994043;28;20049;-69
2021/05/03 10:24:54;;;;;;;3.75;2.40;;;14.60;36.80;;;12.67;45.86;96534.47;4991775;28;20544;-70
2021/05/03 10:27:21;;;;;;;3.17;2.65;;;14.20;37.40;;;12.40;46.58;96522.09;4974757;28;20030;-72
2021/05/03 10:29:47;;;;;;;5.32;2.80;;;14.30;37.30;;;12.49;46.48;96521.78;4948627;28;20072;-69
2021/05/03 10:32:23;;;;;;;4.45;2.72;;;15.40;36.20;;;13.17;46.08;96524.69;4991461;28;20128;-66